createdAt,value
2019-05-19T00:01:37.344Z,93.70
2019-05-19T00:04:06.443Z,95.47
2019-05-19T00:06:35.370Z,96.37
2019-05-19T00:09:05.352Z,100.18
2019-05-19T00:11:34.218Z,98.00
2019-05-19T00:14:03.439Z,92.33
2019-05-19T00:16:32.200Z,92.47
2019-05-19T00:19:01.115Z,96.12
2019-05-19T00:21:30.389Z,91.28
2019-05-19T00:23:59.980Z,98.42
2019-05-19T00:26:29.303Z,96.82
2019-05-19T00:28:58.182Z,100.05
2019-05-19T00:31:27.328Z,98.25
2019-05-19T00:33:56.492Z,104.60
2019-05-19T00:36:31.643Z,103.05
2019-05-19T00:39:00.872Z,93.22
2019-05-19T00:41:30.057Z,92.30
2019-05-19T00:43:58.829Z,112.28
2019-05-19T00:46:28.076Z,95.92
2019-05-19T00:48:57.345Z,96.92
2019-05-19T00:51:26.446Z,91.55
2019-05-19T00:53:55.923Z,94.80
2019-05-19T00:56:26.079Z,98.85
2019-05-19T00:58:56.636Z,100.50
2019-05-19T01:01:25.812Z,96.20
2019-05-19T01:03:55.106Z,97.00
2019-05-19T01:06:23.848Z,101.22
2019-05-19T01:08:54.291Z,96.20
2019-05-19T01:11:23.177Z,97.02
2019-05-19T01:13:52.106Z,96.78
2019-05-19T01:16:21.278Z,96.53
2019-05-19T01:18:50.094Z,100.90
2019-05-19T01:21:19.272Z,102.27
2019-05-19T01:23:48.395Z,99.70
2019-05-19T01:26:17.629Z,97.27
2019-05-19T01:28:46.478Z,96.42
2019-05-19T01:31:15.790Z,99.17
2019-05-19T01:33:44.882Z,95.87
2019-05-19T01:36:14.102Z,98.30
2019-05-19T01:38:43.296Z,101.75
2019-05-19T01:41:12.175Z,96.02
2019-05-19T01:43:41.029Z,99.07
2019-05-19T01:46:10.247Z,101.42
2019-05-19T01:48:39.163Z,105.22
2019-05-19T01:51:07.938Z,102.97
2019-05-19T01:53:37.157Z,100.78
2019-05-19T01:56:07.080Z,102.22
2019-05-19T01:58:36.269Z,104.75
2019-05-19T02:01:05.580Z,105.60
2019-05-19T02:03:34.875Z,102.20
2019-05-19T02:06:04.587Z,99.55
2019-05-19T02:08:33.987Z,104.00
2019-05-19T02:11:03.094Z,99.87
2019-05-19T02:13:31.852Z,106.75
2019-05-19T02:16:01.148Z,96.40
2019-05-19T02:18:30.376Z,107.47
2019-05-19T02:20:59.653Z,105.25
2019-05-19T02:23:28.880Z,106.00
2019-05-19T02:25:57.980Z,102.87
2019-05-19T02:28:26.783Z,100.45
2019-05-19T02:30:56.960Z,100.60
2019-05-19T02:33:26.159Z,107.07
2019-05-19T02:35:55.395Z,107.45
2019-05-19T02:38:24.603Z,103.60
2019-05-19T02:40:55.886Z,109.85
2019-05-19T02:43:26.327Z,100.82
2019-05-19T02:45:58.439Z,101.35
2019-05-19T02:48:28.975Z,101.58
2019-05-19T02:51:00.869Z,101.45
2019-05-19T02:53:32.333Z,98.33
2019-05-19T02:56:02.280Z,108.97
2019-05-19T02:58:32.930Z,99.58
2019-05-19T03:01:02.241Z,105.90
2019-05-19T03:03:31.433Z,108.05
2019-05-19T03:06:00.733Z,108.47
2019-05-19T03:08:29.877Z,106.72
2019-05-19T03:10:59.038Z,107.17
2019-05-19T03:13:30.204Z,98.85
2019-05-19T03:15:59.286Z,107.12
2019-05-19T03:18:28.552Z,102.60
2019-05-19T03:21:10.580Z,104.67
2019-05-19T03:23:27.846Z,109.95
2019-05-19T03:25:57.097Z,105.27
2019-05-19T03:28:27.673Z,101.62
2019-05-19T03:30:58.369Z,110.70
2019-05-19T03:33:31.641Z,104.97
2019-05-19T03:38:29.011Z,107.40
2019-05-19T03:40:58.310Z,109.75
2019-05-19T03:43:27.536Z,112.83
2019-05-19T03:45:56.338Z,110.65
2019-05-19T03:48:25.630Z,116.47
2019-05-19T03:50:54.730Z,106.83
2019-05-19T03:53:23.930Z,111.00
2019-05-19T03:55:53.226Z,105.72
2019-05-19T03:58:22.504Z,112.35
2019-05-19T04:00:51.728Z,114.35
2019-05-19T04:03:20.470Z,107.63
2019-05-19T04:05:49.722Z,109.95
2019-05-19T04:08:18.919Z,109.42
2019-05-19T04:10:47.785Z,114.47
2019-05-19T04:13:17.012Z,107.87
2019-05-19T04:15:46.209Z,105.92
2019-05-19T04:18:15.619Z,107.65
2019-05-19T04:20:44.992Z,109.92
2019-05-19T04:23:14.117Z,105.22
2019-05-19T04:25:43.331Z,111.68
2019-05-19T04:28:12.637Z,109.32
2019-05-19T04:30:41.418Z,108.37
2019-05-19T04:33:10.212Z,106.87
2019-05-19T04:35:38.993Z,109.63
2019-05-19T04:38:08.267Z,100.27
2019-05-19T04:40:37.556Z,106.22
2019-05-19T04:43:06.566Z,107.32
2019-05-19T04:45:35.798Z,108.03
2019-05-19T04:48:09.182Z,113.25
2019-05-19T04:50:35.939Z,104.72
2019-05-19T04:53:05.137Z,111.62
2019-05-19T04:55:34.334Z,104.95
2019-05-19T04:58:03.537Z,104.35
2019-05-19T05:00:32.629Z,105.00
2019-05-19T05:03:01.827Z,111.60
2019-05-19T05:05:30.927Z,112.00
2019-05-19T05:08:01.351Z,113.60
2019-05-19T08:17:31.850Z,97.55
2019-05-19T08:20:00.606Z,95.72
2019-05-19T08:22:29.482Z,92.25
2019-05-19T08:24:58.245Z,87.25
2019-05-19T08:27:27.008Z,94.10
2019-05-19T08:29:57.637Z,92.35
2019-05-19T08:32:26.447Z,89.47
2019-05-19T08:34:55.267Z,90.15
2019-05-19T08:37:24.091Z,90.50
2019-05-19T08:39:52.920Z,86.35
2019-05-19T08:42:21.701Z,82.60
2019-05-19T08:44:50.515Z,88.22
2019-05-19T08:47:19.286Z,85.62
2019-05-19T08:49:48.085Z,89.80
2019-05-19T08:52:16.952Z,87.90
2019-05-19T08:54:45.791Z,83.05
2019-05-19T08:57:14.704Z,89.22
2019-05-19T08:59:43.498Z,86.97
2019-05-19T09:02:12.298Z,84.28
2019-05-19T09:04:41.080Z,88.97
2019-05-19T09:07:09.879Z,88.27
2019-05-19T09:09:38.647Z,81.40
2019-05-19T09:12:07.483Z,80.05
2019-05-19T09:14:36.470Z,81.78
2019-05-19T09:17:05.572Z,79.30
2019-05-19T09:19:34.337Z,74.50
2019-05-19T09:22:03.235Z,75.87
2019-05-19T09:24:32.097Z,76.97
2019-05-19T09:27:00.938Z,74.32
2019-05-19T09:29:29.710Z,76.30
2019-05-19T09:31:58.603Z,76.12
2019-05-19T09:34:27.407Z,73.60
2019-05-19T09:36:56.248Z,76.92
2019-05-19T09:39:25.026Z,79.37
2019-05-19T09:41:53.829Z,72.53
2019-05-19T09:44:22.706Z,70.65
2019-05-19T09:46:51.637Z,63.50
2019-05-19T09:49:33.205Z,63.23
2019-05-19T09:52:02.964Z,64.55
2019-05-19T09:54:44.055Z,55.83
2019-05-19T09:57:02.608Z,62.50
2019-05-19T09:59:31.410Z,62.30
2019-05-19T10:02:00.175Z,59.90
2019-05-19T10:04:29.065Z,62.67
2019-05-19T10:06:57.959Z,58.28
2019-05-19T10:09:46.034Z,58.90
2019-05-19T10:12:14.863Z,55.98
2019-05-19T10:14:43.678Z,54.10
2019-05-19T10:17:12.483Z,61.50
2019-05-19T10:19:41.249Z,54.55
2019-05-19T10:22:10.015Z,59.65
2019-05-19T10:24:38.887Z,58.75
2019-05-19T10:27:07.750Z,62.53
2019-05-19T10:29:36.712Z,62.48
2019-05-19T10:32:05.466Z,60.30
2019-05-19T10:34:34.252Z,64.80
2019-05-19T10:37:03.144Z,62.55
2019-05-19T10:39:31.996Z,59.40
2019-05-19T10:42:00.956Z,57.35
2019-05-19T10:44:29.715Z,58.87
2019-05-19T10:46:58.619Z,56.70
2019-05-19T10:49:27.429Z,61.45
2019-05-19T10:51:56.220Z,58.25
2019-05-19T10:54:25.178Z,58.83
2019-05-19T10:56:53.991Z,57.83
2019-05-19T10:59:22.803Z,59.58
2019-05-19T11:01:51.591Z,61.02
2019-05-19T11:04:20.412Z,58.95
2019-05-19T11:06:49.189Z,58.23
2019-05-19T11:09:18.057Z,60.70
2019-05-19T11:11:46.936Z,63.35
2019-05-19T11:14:15.740Z,58.30
2019-05-19T11:16:44.635Z,57.40
2019-05-19T11:19:13.416Z,62.95
2019-05-19T11:21:42.287Z,61.13
2019-05-19T11:24:11.099Z,58.28
2019-05-19T11:26:41.748Z,58.10
2019-05-19T11:29:10.812Z,54.63
2019-05-19T11:31:43.387Z,53.08
2019-05-19T11:34:12.326Z,53.25
2019-05-19T11:36:41.424Z,52.93
2019-05-19T11:39:10.434Z,50.17
2019-05-19T11:41:40.766Z,52.90
2019-05-19T11:44:09.653Z,47.90
2019-05-19T11:46:41.446Z,52.95
2019-05-19T11:49:24.462Z,55.48
2019-05-19T11:51:53.538Z,55.10
2019-05-19T11:54:27.383Z,54.80
2019-05-19T11:57:06.982Z,54.25
2019-05-19T11:59:37.413Z,57.95
2019-05-19T12:02:10.589Z,62.53
2019-05-19T12:04:39.397Z,63.58
2019-05-19T12:07:09.334Z,59.13
2019-05-19T12:09:38.828Z,57.50
2019-05-19T12:12:07.623Z,53.02
2019-05-19T12:14:36.597Z,57.23
2019-05-19T12:17:07.640Z,54.65
2019-05-19T12:19:37.634Z,54.60
2019-05-19T12:22:06.659Z,52.03
2019-05-19T12:24:37.806Z,53.78
2019-05-19T12:27:06.801Z,51.25
2019-05-19T12:29:35.780Z,47.00
2019-05-19T12:32:06.481Z,46.33
2019-05-19T12:34:35.417Z,45.98
2019-05-19T12:37:07.153Z,44.45
2019-05-19T12:39:36.282Z,41.13
2019-05-19T12:42:05.135Z,36.15
2019-05-19T12:44:34.059Z,33.85
2019-05-19T12:47:05.610Z,39.88
2019-05-19T12:49:36.532Z,35.00
2019-05-19T12:52:07.877Z,37.00
2019-05-19T12:54:39.445Z,37.13
2019-05-19T12:57:08.345Z,34.95
2019-05-19T12:59:37.249Z,36.08
2019-05-19T13:02:06.423Z,36.05
2019-05-19T13:04:35.196Z,37.03
2019-05-19T13:07:06.788Z,34.55
2019-05-19T13:09:35.790Z,37.17
2019-05-19T13:12:04.616Z,32.93
2019-05-19T13:14:33.618Z,34.18
2019-05-19T13:17:05.500Z,34.35
2019-05-19T13:19:34.052Z,34.25
2019-05-19T13:22:03.016Z,36.63
2019-05-19T13:24:34.438Z,38.80
2019-05-19T13:27:03.456Z,36.55
2019-05-19T13:29:35.418Z,37.05
2019-05-19T13:32:06.149Z,37.98
2019-05-19T13:34:34.930Z,41.53
2019-05-19T13:37:03.873Z,36.13
2019-05-19T13:39:32.776Z,35.50
2019-05-19T13:42:02.959Z,41.37
2019-05-19T13:44:32.423Z,38.38
2019-05-19T13:47:01.479Z,38.60
2019-05-19T13:49:30.643Z,38.48
2019-05-19T13:51:59.371Z,39.80
2019-05-19T13:54:29.880Z,44.70
2019-05-19T13:57:11.369Z,41.02
2019-05-19T13:59:29.298Z,41.90
2019-05-19T14:02:00.234Z,40.50
2019-05-19T14:04:29.007Z,37.95
2019-05-19T14:06:58.036Z,38.48
2019-05-19T14:09:28.661Z,37.28
2019-05-19T14:11:57.569Z,35.92
2019-05-19T14:14:28.085Z,34.63
2019-05-19T14:16:58.997Z,37.10
2019-05-19T14:19:30.163Z,41.98
2019-05-19T14:21:59.033Z,35.78
2019-05-19T14:24:28.044Z,39.50
2019-05-19T14:27:01.414Z,40.45
2019-05-19T14:33:13.172Z,49.48
2019-05-19T14:35:45.020Z,51.40
2019-05-19T14:38:14.187Z,44.20
2019-05-19T14:40:44.342Z,40.17
2019-05-19T14:43:14.079Z,43.28
2019-05-19T14:45:43.182Z,40.30
2019-05-19T14:48:14.171Z,44.53
2019-05-19T14:50:42.738Z,44.20
2019-05-19T14:53:14.353Z,41.23
2019-05-19T14:55:43.544Z,42.88
2019-05-19T14:58:13.057Z,41.33
2019-05-19T15:00:47.102Z,42.50
2019-05-19T15:03:18.519Z,41.55
2019-05-19T15:05:47.357Z,43.63
2019-05-19T15:08:16.204Z,43.02
2019-05-19T15:10:47.638Z,43.83
2019-05-19T15:13:18.159Z,42.15
2019-05-19T15:15:48.487Z,42.62
2019-05-19T15:18:17.539Z,52.98
2019-05-19T15:20:46.481Z,43.25
2019-05-19T15:23:17.642Z,42.27
2019-05-19T15:25:48.071Z,46.02
2019-05-19T15:28:18.092Z,41.65
2019-05-19T15:30:47.060Z,48.45
2019-05-19T15:33:16.158Z,43.40
2019-05-19T15:35:45.918Z,41.80
2019-05-19T15:38:16.407Z,46.77
2019-05-19T15:40:48.405Z,45.43
2019-05-19T15:43:17.263Z,47.30
2019-05-19T15:45:46.482Z,46.40
2019-05-19T15:48:15.318Z,48.38
2019-05-19T15:50:46.400Z,43.45
2019-05-19T15:53:15.218Z,47.35
2019-05-19T15:55:44.213Z,47.78
2019-05-19T15:58:16.988Z,47.23
2019-05-19T16:03:15.496Z,42.90
2019-05-19T16:05:47.555Z,52.98
2019-05-19T16:08:16.598Z,50.95
2019-05-19T16:10:46.023Z,43.98
2019-05-19T16:13:15.259Z,43.80
2019-05-19T16:15:44.180Z,47.75
2019-05-19T16:18:13.259Z,46.33
2019-05-19T16:20:43.558Z,48.95
2019-05-19T16:23:13.756Z,47.85
2019-05-19T16:25:42.864Z,48.33
2019-05-19T16:28:11.689Z,48.73
2019-05-19T16:30:42.977Z,48.85
2019-05-19T16:33:14.585Z,48.50
2019-05-19T16:35:46.252Z,50.58
2019-05-19T16:38:17.035Z,50.83
2019-05-19T16:40:47.570Z,50.67
2019-05-19T16:43:16.400Z,56.63
2019-05-19T16:45:46.197Z,52.03
2019-05-19T16:48:15.564Z,53.23
2019-05-19T16:50:44.765Z,58.50
2019-05-19T16:53:13.806Z,58.00
2019-05-19T16:55:42.716Z,58.38
2019-05-19T16:58:21.215Z,57.50
2019-05-19T17:00:44.348Z,57.08
2019-05-19T17:03:13.239Z,57.73
2019-05-19T17:05:44.830Z,59.42
2019-05-19T17:08:13.697Z,57.25
2019-05-19T17:10:44.153Z,53.70
2019-05-19T17:13:13.128Z,61.15
2019-05-19T17:15:42.139Z,59.42
2019-05-19T17:18:11.146Z,63.70
2019-05-19T17:20:43.994Z,60.90
2019-05-19T17:23:13.018Z,60.92
2019-05-19T17:25:41.865Z,68.10
2019-05-19T17:28:13.619Z,62.65
2019-05-19T17:30:44.517Z,64.03
2019-05-19T17:33:13.183Z,67.75
2019-05-19T17:35:44.047Z,66.95
2019-05-19T17:38:12.792Z,65.50
2019-05-19T17:40:43.255Z,65.03
2019-05-19T17:43:15.171Z,65.72
2019-05-19T17:45:44.096Z,67.87
2019-05-19T17:48:25.704Z,69.00
2019-05-19T17:50:45.788Z,65.65
2019-05-19T17:53:14.988Z,79.90
2019-05-19T17:55:45.211Z,76.62
2019-05-19T17:58:15.499Z,72.90
2019-05-19T18:00:44.466Z,70.30
2019-05-19T18:03:13.288Z,73.30
2019-05-19T18:05:42.129Z,76.95
2019-05-19T18:08:10.884Z,70.57
2019-05-19T18:10:39.701Z,73.33
2019-05-19T18:13:08.481Z,74.10
2019-05-19T18:15:37.762Z,67.95
2019-05-19T18:18:06.601Z,73.62
2019-05-19T18:20:35.391Z,78.10
2019-05-19T18:23:04.224Z,74.70
2019-05-19T18:25:33.126Z,80.22
2019-05-19T18:28:01.997Z,84.87
2019-05-19T18:30:30.773Z,80.45
2019-05-19T18:32:59.669Z,88.65
2019-05-19T18:35:28.509Z,84.20
2019-05-19T18:37:57.420Z,82.70
2019-05-19T18:40:26.250Z,89.77
2019-05-19T18:42:55.079Z,89.92
2019-05-19T18:45:23.977Z,87.08
2019-05-19T18:47:52.731Z,89.90
2019-05-19T18:50:21.617Z,87.53
2019-05-19T18:52:50.383Z,89.28
2019-05-19T18:55:19.236Z,89.97
2019-05-19T18:57:48.111Z,89.60
2019-05-19T19:00:19.891Z,92.75
2019-05-19T19:02:48.691Z,88.87
2019-05-19T19:05:17.474Z,102.35
2019-05-19T19:07:50.829Z,92.97
2019-05-19T19:12:48.188Z,95.85
2019-05-19T19:15:17.100Z,96.75
2019-05-19T19:17:45.924Z,105.85
2019-05-19T19:20:15.306Z,104.38
2019-05-19T19:22:44.069Z,103.35
2019-05-19T19:25:14.688Z,108.37
2019-05-19T19:27:43.391Z,98.75
2019-05-19T19:30:13.632Z,105.15
2019-05-19T19:32:42.459Z,106.32
2019-05-19T19:35:11.340Z,102.20
2019-05-19T19:37:40.156Z,105.15
2019-05-19T19:40:09.160Z,110.68
2019-05-19T19:42:38.034Z,106.55
2019-05-19T19:45:07.318Z,108.15
2019-05-19T19:47:36.234Z,103.12
2019-05-19T19:50:06.542Z,99.07
2019-05-19T19:52:35.403Z,101.35
2019-05-19T19:55:05.173Z,97.90
2019-05-19T19:57:33.934Z,97.45
2019-05-19T20:00:16.933Z,108.97
2019-05-19T20:02:33.236Z,94.47
2019-05-19T20:05:03.902Z,102.35
2019-05-19T20:07:32.668Z,94.75
2019-05-19T20:10:01.488Z,105.90
2019-05-19T20:12:30.361Z,102.07
2019-05-19T20:14:59.186Z,101.62
2019-05-19T20:17:27.945Z,101.12
2019-05-19T20:19:56.751Z,100.60
2019-05-19T20:22:25.525Z,82.53
2019-05-19T20:24:54.488Z,93.92
2019-05-19T20:27:23.333Z,78.00
2019-05-19T20:29:52.127Z,84.05
2019-05-19T20:32:21.005Z,80.83
2019-05-19T20:34:49.804Z,84.37
2019-05-19T20:37:18.607Z,81.35
2019-05-19T20:39:47.399Z,90.38
2019-05-19T20:42:16.287Z,95.40
2019-05-19T20:44:45.168Z,96.08
2019-05-19T20:47:14.030Z,108.25
2019-05-19T20:49:42.898Z,95.92
2019-05-19T20:52:11.745Z,96.08
2019-05-19T20:54:40.553Z,91.95
2019-05-19T20:57:09.316Z,91.42
2019-05-19T20:59:38.214Z,96.97
2019-05-19T21:02:07.071Z,98.67
2019-05-19T21:04:35.973Z,89.20
2019-05-19T21:07:07.681Z,89.65
2019-05-19T21:09:35.323Z,89.75
2019-05-19T21:12:04.256Z,95.97
2019-05-19T21:14:33.169Z,91.72
2019-05-19T21:17:01.973Z,91.78
2019-05-19T21:19:30.763Z,102.50
2019-05-19T21:21:59.653Z,93.35
2019-05-19T21:24:28.480Z,94.83
2019-05-19T21:26:57.262Z,102.20
2019-05-19T21:29:27.013Z,95.15
2019-05-19T21:31:55.796Z,99.40
2019-05-19T21:34:24.611Z,93.30
2019-05-19T21:36:53.440Z,99.80
2019-05-19T21:39:22.304Z,101.78
2019-05-19T21:41:51.063Z,95.83
2019-05-19T21:44:19.841Z,97.37
2019-05-19T21:46:48.645Z,101.45
2019-05-19T21:49:17.418Z,89.47
2019-05-19T21:51:46.320Z,93.80
2019-05-19T21:54:15.174Z,95.53
2019-05-19T21:56:43.995Z,81.87
2019-05-19T21:59:12.795Z,88.27
2019-05-19T22:01:41.638Z,87.02
2019-05-19T22:04:10.568Z,93.70
2019-05-19T22:06:40.967Z,93.30
2019-05-19T22:09:09.813Z,88.80
2019-05-19T22:11:38.712Z,90.85
2019-05-19T22:14:07.505Z,84.50
2019-05-19T22:16:36.341Z,90.60
2019-05-19T22:19:05.680Z,100.67
2019-05-19T22:21:34.508Z,92.97
2019-05-19T22:24:03.329Z,90.55
2019-05-19T22:26:32.093Z,90.65
2019-05-19T22:29:00.871Z,88.15
2019-05-19T22:31:36.541Z,88.55
2019-05-19T22:34:00.107Z,84.22
2019-05-19T22:36:29.045Z,100.02
2019-05-19T22:38:57.816Z,93.47
2019-05-19T22:41:26.588Z,88.37
2019-05-19T22:43:55.396Z,90.83
2019-05-19T22:46:24.231Z,96.45
2019-05-19T22:48:53.077Z,84.17
2019-05-19T22:51:22.833Z,85.45
2019-05-19T22:53:51.897Z,82.17
2019-05-19T22:56:20.660Z,86.08
2019-05-19T22:58:49.468Z,74.65
2019-05-19T23:01:18.336Z,80.55
2019-05-19T23:03:47.106Z,81.25
2019-05-19T23:06:15.972Z,81.02
2019-05-19T23:08:44.740Z,82.05
2019-05-19T23:11:13.632Z,78.75
2019-05-19T23:13:42.461Z,78.75
2019-05-19T23:16:11.262Z,77.10
2019-05-19T23:18:40.108Z,77.82
2019-05-19T23:21:09.023Z,75.78
2019-05-19T23:23:37.944Z,80.77
2019-05-19T23:26:06.709Z,72.55
2019-05-19T23:28:35.522Z,79.10
2019-05-19T23:31:04.302Z,83.10
2019-05-19T23:33:33.088Z,76.85
2019-05-19T23:36:01.886Z,74.20
2019-05-19T23:38:30.665Z,76.20
2019-05-19T23:40:59.504Z,74.30
2019-05-19T23:43:28.306Z,68.05
2019-05-19T23:45:57.431Z,72.62
2019-05-19T23:48:26.340Z,75.03
2019-05-19T23:50:55.171Z,67.45
2019-05-19T23:53:23.998Z,64.82
2019-05-19T23:55:52.827Z,64.80
2019-05-19T23:58:21.606Z,66.42
